sensor_id;sensor_type;location;lat;lon;timestamp;P1;durP1;ratioP1;P2;durP2;ratioP2
24034;SDS011;12242;50.952;4.678;2023-04-15T00:02:12;4.00;;;1.33;;
24034;SDS011;12242;50.952;4.678;2023-04-15T00:04:45;3.35;;;1.30;;
24034;SDS011;12242;50.952;4.678;2023-04-15T00:07:14;3.60;;;1.50;;
24034;SDS011;12242;50.952;4.678;2023-04-15T00:09:42;5.22;;;1.60;;
24034;SDS011;12242;50.952;4.678;2023-04-15T00:12:10;4.28;;;1.48;;
24034;SDS011;12242;50.952;4.678;2023-04-15T00:14:38;3.97;;;1.58;;
24034;SDS011;12242;50.952;4.678;2023-04-15T00:17:05;3.83;;;1.70;;
24034;SDS011;12242;50.952;4.678;2023-04-15T00:19:34;4.40;;;1.85;;
24034;SDS011;12242;50.952;4.678;2023-04-15T00:22:01;6.05;;;1.77;;
24034;SDS011;12242;50.952;4.678;2023-04-15T00:24:29;4.68;;;1.67;;
24034;SDS011;12242;50.952;4.678;2023-04-15T00:26:57;4.93;;;2.08;;
24034;SDS011;12242;50.952;4.678;2023-04-15T00:29:25;5.22;;;1.90;;
24034;SDS011;12242;50.952;4.678;2023-04-15T00:31:53;6.07;;;2.08;;
24034;SDS011;12242;50.952;4.678;2023-04-15T00:34:21;7.20;;;1.92;;
24034;SDS011;12242;50.952;4.678;2023-04-15T00:36:49;4.38;;;1.60;;
24034;SDS011;12242;50.952;4.678;2023-04-15T00:39:18;4.75;;;1.50;;
24034;SDS011;12242;50.952;4.678;2023-04-15T00:41:46;8.65;;;2.10;;
24034;SDS011;12242;50.952;4.678;2023-04-15T00:44:13;3.78;;;1.48;;
24034;SDS011;12242;50.952;4.678;2023-04-15T00:46:41;4.78;;;1.40;;
24034;SDS011;12242;50.952;4.678;2023-04-15T00:49:11;4.32;;;1.45;;
24034;SDS011;12242;50.952;4.678;2023-04-15T00:51:39;4.75;;;1.42;;
24034;SDS011;12242;50.952;4.678;2023-04-15T00:54:06;5.88;;;1.60;;
24034;SDS011;12242;50.952;4.678;2023-04-15T00:56:34;5.28;;;1.52;;
24034;SDS011;12242;50.952;4.678;2023-04-15T00:59:04;4.10;;;1.52;;
24034;SDS011;12242;50.952;4.678;2023-04-15T01:01:33;6.65;;;1.52;;
24034;SDS011;12242;50.952;4.678;2023-04-15T01:04:02;4.32;;;1.58;;
24034;SDS011;12242;50.952;4.678;2023-04-15T01:06:31;4.85;;;1.73;;
24034;SDS011;12242;50.952;4.678;2023-04-15T01:08:59;3.42;;;1.52;;
24034;SDS011;12242;50.952;4.678;2023-04-15T01:11:27;8.02;;;1.42;;
24034;SDS011;12242;50.952;4.678;2023-04-15T01:13:57;7.75;;;2.03;;
24034;SDS011;12242;50.952;4.678;2023-04-15T01:16:25;4.07;;;1.83;;
24034;SDS011;12242;50.952;4.678;2023-04-15T01:18:54;4.40;;;1.73;;
24034;SDS011;12242;50.952;4.678;2023-04-15T01:21:22;3.35;;;1.50;;
24034;SDS011;12242;50.952;4.678;2023-04-15T01:23:50;5.68;;;1.75;;
24034;SDS011;12242;50.952;4.678;2023-04-15T01:26:19;6.60;;;1.77;;
24034;SDS011;12242;50.952;4.678;2023-04-15T01:28:49;3.63;;;1.40;;
24034;SDS011;12242;50.952;4.678;2023-04-15T01:31:16;5.70;;;1.98;;
24034;SDS011;12242;50.952;4.678;2023-04-15T01:33:45;5.05;;;1.83;;
24034;SDS011;12242;50.952;4.678;2023-04-15T01:36:12;5.45;;;1.90;;
24034;SDS011;12242;50.952;4.678;2023-04-15T01:38:40;6.07;;;1.80;;
24034;SDS011;12242;50.952;4.678;2023-04-15T01:41:08;5.80;;;1.73;;
24034;SDS011;12242;50.952;4.678;2023-04-15T01:43:36;10.73;;;1.65;;
24034;SDS011;12242;50.952;4.678;2023-04-15T01:46:03;5.00;;;1.80;;
24034;SDS011;12242;50.952;4.678;2023-04-15T01:48:32;6.85;;;2.00;;
24034;SDS011;12242;50.952;4.678;2023-04-15T01:50:59;7.28;;;1.88;;
24034;SDS011;12242;50.952;4.678;2023-04-15T01:53:27;7.60;;;1.90;;
24034;SDS011;12242;50.952;4.678;2023-04-15T01:55:55;5.28;;;1.77;;
24034;SDS011;12242;50.952;4.678;2023-04-15T01:58:22;4.78;;;1.70;;
24034;SDS011;12242;50.952;4.678;2023-04-15T02:00:50;4.57;;;1.92;;
24034;SDS011;12242;50.952;4.678;2023-04-15T02:03:18;4.13;;;1.90;;
24034;SDS011;12242;50.952;4.678;2023-04-15T02:05:45;5.82;;;1.80;;
24034;SDS011;12242;50.952;4.678;2023-04-15T02:08:13;6.72;;;2.25;;
24034;SDS011;12242;50.952;4.678;2023-04-15T02:10:40;4.65;;;2.08;;
24034;SDS011;12242;50.952;4.678;2023-04-15T02:13:08;4.72;;;2.00;;
24034;SDS011;12242;50.952;4.678;2023-04-15T02:15:36;6.85;;;2.38;;
24034;SDS011;12242;50.952;4.678;2023-04-15T02:18:04;7.53;;;2.53;;
24034;SDS011;12242;50.952;4.678;2023-04-15T02:20:31;5.45;;;1.90;;
24034;SDS011;12242;50.952;4.678;2023-04-15T02:22:59;5.55;;;2.40;;
24034;SDS011;12242;50.952;4.678;2023-04-15T02:25:27;6.20;;;2.40;;
24034;SDS011;12242;50.952;4.678;2023-04-15T02:27:56;7.30;;;2.72;;
24034;SDS011;12242;50.952;4.678;2023-04-15T02:30:24;7.97;;;2.92;;
24034;SDS011;12242;50.952;4.678;2023-04-15T02:32:51;6.93;;;2.47;;
24034;SDS011;12242;50.952;4.678;2023-04-15T02:35:19;7.75;;;2.78;;
24034;SDS011;12242;50.952;4.678;2023-04-15T02:37:47;6.97;;;2.75;;
24034;SDS011;12242;50.952;4.678;2023-04-15T02:40:14;7.72;;;2.63;;
24034;SDS011;12242;50.952;4.678;2023-04-15T02:42:42;6.68;;;2.58;;
24034;SDS011;12242;50.952;4.678;2023-04-15T02:45:10;8.73;;;2.90;;
24034;SDS011;12242;50.952;4.678;2023-04-15T02:47:38;5.80;;;2.33;;
24034;SDS011;12242;50.952;4.678;2023-04-15T02:50:07;8.68;;;2.50;;
24034;SDS011;12242;50.952;4.678;2023-04-15T02:52:40;6.75;;;2.83;;
24034;SDS011;12242;50.952;4.678;2023-04-15T02:55:08;7.15;;;2.78;;
24034;SDS011;12242;50.952;4.678;2023-04-15T02:57:36;7.13;;;2.88;;
24034;SDS011;12242;50.952;4.678;2023-04-15T03:00:05;12.13;;;3.17;;
24034;SDS011;12242;50.952;4.678;2023-04-15T03:02:36;8.27;;;2.92;;
24034;SDS011;12242;50.952;4.678;2023-04-15T03:05:04;5.85;;;2.47;;
24034;SDS011;12242;50.952;4.678;2023-04-15T03:07:32;8.07;;;2.63;;
24034;SDS011;12242;50.952;4.678;2023-04-15T03:10:00;7.15;;;2.47;;
24034;SDS011;12242;50.952;4.678;2023-04-15T03:12:28;7.38;;;2.80;;
24034;SDS011;12242;50.952;4.678;2023-04-15T03:14:56;6.97;;;3.05;;
24034;SDS011;12242;50.952;4.678;2023-04-15T03:17:23;5.43;;;2.60;;
24034;SDS011;12242;50.952;4.678;2023-04-15T03:19:51;7.50;;;2.88;;
24034;SDS011;12242;50.952;4.678;2023-04-15T03:22:18;9.73;;;3.30;;
24034;SDS011;12242;50.952;4.678;2023-04-15T03:24:46;5.93;;;2.80;;
24034;SDS011;12242;50.952;4.678;2023-04-15T03:27:13;8.43;;;2.75;;
24034;SDS011;12242;50.952;4.678;2023-04-15T03:29:41;7.43;;;2.63;;
24034;SDS011;12242;50.952;4.678;2023-04-15T03:32:08;10.40;;;2.72;;
24034;SDS011;12242;50.952;4.678;2023-04-15T03:34:36;8.70;;;3.40;;
24034;SDS011;12242;50.952;4.678;2023-04-15T03:37:04;7.57;;;3.15;;
24034;SDS011;12242;50.952;4.678;2023-04-15T03:39:32;7.38;;;2.90;;
24034;SDS011;12242;50.952;4.678;2023-04-15T03:41:59;9.32;;;3.50;;
24034;SDS011;12242;50.952;4.678;2023-04-15T03:44:27;6.13;;;2.92;;
24034;SDS011;12242;50.952;4.678;2023-04-15T03:46:55;8.70;;;2.58;;
24034;SDS011;12242;50.952;4.678;2023-04-15T03:49:22;6.93;;;3.10;;
24034;SDS011;12242;50.952;4.678;2023-04-15T03:51:50;6.85;;;2.83;;
24034;SDS011;12242;50.952;4.678;2023-04-15T03:54:18;9.20;;;3.40;;
24034;SDS011;12242;50.952;4.678;2023-04-15T03:56:45;6.50;;;2.97;;
24034;SDS011;12242;50.952;4.678;2023-04-15T03:59:12;7.40;;;3.13;;
24034;SDS011;12242;50.952;4.678;2023-04-15T04:01:40;6.55;;;3.17;;
24034;SDS011;12242;50.952;4.678;2023-04-15T04:04:07;8.73;;;2.90;;
24034;SDS011;12242;50.952;4.678;2023-04-15T04:06:35;6.35;;;2.70;;
24034;SDS011;12242;50.952;4.678;2023-04-15T04:09:03;7.97;;;3.10;;
24034;SDS011;12242;50.952;4.678;2023-04-15T04:11:30;6.95;;;3.03;;
24034;SDS011;12242;50.952;4.678;2023-04-15T04:13:58;6.50;;;3.15;;
24034;SDS011;12242;50.952;4.678;2023-04-15T04:16:26;6.05;;;2.85;;
24034;SDS011;12242;50.952;4.678;2023-04-15T04:18:54;7.18;;;3.45;;
24034;SDS011;12242;50.952;4.678;2023-04-15T04:21:21;7.45;;;3.38;;
24034;SDS011;12242;50.952;4.678;2023-04-15T04:23:49;15.50;;;3.05;;
24034;SDS011;12242;50.952;4.678;2023-04-15T04:26:17;9.23;;;3.50;;
24034;SDS011;12242;50.952;4.678;2023-04-15T04:28:45;15.15;;;3.92;;
24034;SDS011;12242;50.952;4.678;2023-04-15T04:31:12;8.07;;;3.10;;
24034;SDS011;12242;50.952;4.678;2023-04-15T04:33:40;8.38;;;3.25;;
24034;SDS011;12242;50.952;4.678;2023-04-15T04:36:07;6.90;;;3.15;;
24034;SDS011;12242;50.952;4.678;2023-04-15T04:38:35;8.23;;;3.50;;
24034;SDS011;12242;50.952;4.678;2023-04-15T04:41:02;9.88;;;2.97;;
24034;SDS011;12242;50.952;4.678;2023-04-15T04:43:30;11.50;;;3.75;;
24034;SDS011;12242;50.952;4.678;2023-04-15T04:45:58;9.38;;;3.85;;
24034;SDS011;12242;50.952;4.678;2023-04-15T04:48:25;12.00;;;4.20;;
24034;SDS011;12242;50.952;4.678;2023-04-15T04:50:52;9.27;;;3.88;;
24034;SDS011;12242;50.952;4.678;2023-04-15T04:53:20;9.55;;;3.28;;
24034;SDS011;12242;50.952;4.678;2023-04-15T04:55:48;9.10;;;3.78;;
24034;SDS011;12242;50.952;4.678;2023-04-15T04:58:15;6.93;;;3.38;;
24034;SDS011;12242;50.952;4.678;2023-04-15T05:00:43;9.43;;;3.45;;
24034;SDS011;12242;50.952;4.678;2023-04-15T05:03:10;8.80;;;3.30;;
24034;SDS011;12242;50.952;4.678;2023-04-15T05:05:38;6.95;;;3.10;;
24034;SDS011;12242;50.952;4.678;2023-04-15T05:08:06;9.98;;;3.47;;
24034;SDS011;12242;50.952;4.678;2023-04-15T05:10:34;8.93;;;3.30;;
24034;SDS011;12242;50.952;4.678;2023-04-15T05:13:02;8.23;;;3.53;;
24034;SDS011;12242;50.952;4.678;2023-04-15T05:15:29;12.23;;;4.03;;
24034;SDS011;12242;50.952;4.678;2023-04-15T05:17:58;7.28;;;3.38;;
24034;SDS011;12242;50.952;4.678;2023-04-15T05:20:25;8.13;;;3.58;;
24034;SDS011;12242;50.952;4.678;2023-04-15T05:22:53;7.90;;;3.10;;
24034;SDS011;12242;50.952;4.678;2023-04-15T05:25:20;8.30;;;2.90;;
24034;SDS011;12242;50.952;4.678;2023-04-15T05:27:48;9.35;;;3.17;;
24034;SDS011;12242;50.952;4.678;2023-04-15T05:30:15;13.77;;;4.00;;
24034;SDS011;12242;50.952;4.678;2023-04-15T05:32:43;10.27;;;3.60;;
24034;SDS011;12242;50.952;4.678;2023-04-15T05:35:10;7.25;;;3.05;;
24034;SDS011;12242;50.952;4.678;2023-04-15T05:37:38;10.70;;;3.20;;
24034;SDS011;12242;50.952;4.678;2023-04-15T05:40:06;8.40;;;3.45;;
24034;SDS011;12242;50.952;4.678;2023-04-15T05:42:36;8.52;;;3.55;;
24034;SDS011;12242;50.952;4.678;2023-04-15T05:45:04;10.85;;;3.67;;
24034;SDS011;12242;50.952;4.678;2023-04-15T05:47:35;8.57;;;3.28;;
24034;SDS011;12242;50.952;4.678;2023-04-15T05:50:06;9.13;;;3.38;;
24034;SDS011;12242;50.952;4.678;2023-04-15T05:52:34;7.55;;;2.92;;
24034;SDS011;12242;50.952;4.678;2023-04-15T05:55:01;9.95;;;3.63;;
24034;SDS011;12242;50.952;4.678;2023-04-15T05:57:29;10.68;;;3.40;;
24034;SDS011;12242;50.952;4.678;2023-04-15T05:59:57;8.65;;;3.25;;
24034;SDS011;12242;50.952;4.678;2023-04-15T06:02:24;9.65;;;3.22;;
24034;SDS011;12242;50.952;4.678;2023-04-15T06:04:52;10.00;;;3.83;;
24034;SDS011;12242;50.952;4.678;2023-04-15T06:07:20;10.43;;;3.53;;
24034;SDS011;12242;50.952;4.678;2023-04-15T06:09:47;9.85;;;3.17;;
24034;SDS011;12242;50.952;4.678;2023-04-15T06:12:15;11.52;;;3.80;;
24034;SDS011;12242;50.952;4.678;2023-04-15T06:14:42;9.48;;;3.63;;
24034;SDS011;12242;50.952;4.678;2023-04-15T06:17:10;7.57;;;3.33;;
24034;SDS011;12242;50.952;4.678;2023-04-15T06:19:40;7.90;;;3.42;;
24034;SDS011;12242;50.952;4.678;2023-04-15T06:22:08;12.00;;;4.07;;
24034;SDS011;12242;50.952;4.678;2023-04-15T06:24:35;8.82;;;3.55;;
24034;SDS011;12242;50.952;4.678;2023-04-15T06:27:03;9.30;;;3.40;;
24034;SDS011;12242;50.952;4.678;2023-04-15T06:29:31;7.20;;;3.28;;
24034;SDS011;12242;50.952;4.678;2023-04-15T06:31:58;9.95;;;4.10;;
24034;SDS011;12242;50.952;4.678;2023-04-15T06:34:26;9.90;;;3.63;;
24034;SDS011;12242;50.952;4.678;2023-04-15T06:36:53;11.35;;;3.88;;
24034;SDS011;12242;50.952;4.678;2023-04-15T06:39:21;9.75;;;3.80;;
24034;SDS011;12242;50.952;4.678;2023-04-15T06:41:49;10.70;;;4.13;;
24034;SDS011;12242;50.952;4.678;2023-04-15T06:44:17;11.10;;;4.65;;
24034;SDS011;12242;50.952;4.678;2023-04-15T06:46:44;12.32;;;4.63;;
24034;SDS011;12242;50.952;4.678;2023-04-15T06:49:12;9.75;;;4.57;;
24034;SDS011;12242;50.952;4.678;2023-04-15T06:51:41;13.27;;;5.10;;
24034;SDS011;12242;50.952;4.678;2023-04-15T06:54:10;11.23;;;5.13;;
24034;SDS011;12242;50.952;4.678;2023-04-15T06:56:38;11.82;;;4.75;;
24034;SDS011;12242;50.952;4.678;2023-04-15T06:59:05;14.07;;;4.63;;
24034;SDS011;12242;50.952;4.678;2023-04-15T07:01:34;11.13;;;5.45;;
24034;SDS011;12242;50.952;4.678;2023-04-15T07:04:02;13.45;;;5.22;;
24034;SDS011;12242;50.952;4.678;2023-04-15T07:06:29;13.32;;;4.82;;
24034;SDS011;12242;50.952;4.678;2023-04-15T07:08:58;9.38;;;4.70;;
24034;SDS011;12242;50.952;4.678;2023-04-15T07:11:26;12.52;;;4.82;;
24034;SDS011;12242;50.952;4.678;2023-04-15T07:13:54;11.20;;;4.90;;
24034;SDS011;12242;50.952;4.678;2023-04-15T07:16:21;13.25;;;5.18;;
24034;SDS011;12242;50.952;4.678;2023-04-15T07:18:49;13.68;;;5.05;;
24034;SDS011;12242;50.952;4.678;2023-04-15T07:21:17;9.65;;;5.10;;
24034;SDS011;12242;50.952;4.678;2023-04-15T07:23:44;14.02;;;5.28;;
24034;SDS011;12242;50.952;4.678;2023-04-15T07:26:12;11.65;;;5.18;;
24034;SDS011;12242;50.952;4.678;2023-04-15T07:28:40;10.43;;;5.32;;
24034;SDS011;12242;50.952;4.678;2023-04-15T07:31:07;10.80;;;4.68;;
24034;SDS011;12242;50.952;4.678;2023-04-15T07:33:35;14.25;;;5.50;;
24034;SDS011;12242;50.952;4.678;2023-04-15T07:36:03;11.20;;;5.28;;
24034;SDS011;12242;50.952;4.678;2023-04-15T07:38:30;13.23;;;5.30;;
24034;SDS011;12242;50.952;4.678;2023-04-15T07:40:58;11.80;;;4.90;;
24034;SDS011;12242;50.952;4.678;2023-04-15T07:43:26;12.55;;;4.90;;
24034;SDS011;12242;50.952;4.678;2023-04-15T07:45:54;12.15;;;5.38;;
24034;SDS011;12242;50.952;4.678;2023-04-15T07:48:21;10.57;;;4.88;;
24034;SDS011;12242;50.952;4.678;2023-04-15T07:50:49;11.88;;;4.57;;
24034;SDS011;12242;50.952;4.678;2023-04-15T07:53:16;10.65;;;4.95;;
24034;SDS011;12242;50.952;4.678;2023-04-15T07:55:44;10.75;;;5.32;;
24034;SDS011;12242;50.952;4.678;2023-04-15T07:58:12;11.85;;;4.70;;
24034;SDS011;12242;50.952;4.678;2023-04-15T08:00:39;10.07;;;4.60;;
24034;SDS011;12242;50.952;4.678;2023-04-15T08:03:07;8.10;;;4.32;;
24034;SDS011;12242;50.952;4.678;2023-04-15T08:05:35;11.63;;;4.35;;
24034;SDS011;12242;50.952;4.678;2023-04-15T08:08:02;9.18;;;4.13;;
24034;SDS011;12242;50.952;4.678;2023-04-15T08:10:30;8.77;;;4.00;;
24034;SDS011;12242;50.952;4.678;2023-04-15T08:12:58;11.85;;;4.25;;
24034;SDS011;12242;50.952;4.678;2023-04-15T08:15:25;9.52;;;4.40;;
24034;SDS011;12242;50.952;4.678;2023-04-15T08:17:54;13.15;;;4.45;;
24034;SDS011;12242;50.952;4.678;2023-04-15T08:20:21;8.00;;;3.70;;
24034;SDS011;12242;50.952;4.678;2023-04-15T08:22:49;9.77;;;4.13;;
24034;SDS011;12242;50.952;4.678;2023-04-15T08:25:18;8.57;;;3.97;;
24034;SDS011;12242;50.952;4.678;2023-04-15T08:27:46;11.10;;;4.85;;
24034;SDS011;12242;50.952;4.678;2023-04-15T08:30:14;10.57;;;3.85;;
24034;SDS011;12242;50.952;4.678;2023-04-15T08:32:41;12.23;;;4.30;;
24034;SDS011;12242;50.952;4.678;2023-04-15T08:35:12;9.65;;;4.38;;
24034;SDS011;12242;50.952;4.678;2023-04-15T08:37:40;10.55;;;4.82;;
24034;SDS011;12242;50.952;4.678;2023-04-15T08:40:09;8.20;;;4.45;;
24034;SDS011;12242;50.952;4.678;2023-04-15T08:42:40;8.82;;;4.10;;
24034;SDS011;12242;50.952;4.678;2023-04-15T08:45:10;8.60;;;4.45;;
24034;SDS011;12242;50.952;4.678;2023-04-15T08:47:38;8.73;;;4.20;;
24034;SDS011;12242;50.952;4.678;2023-04-15T08:50:07;9.20;;;4.00;;
24034;SDS011;12242;50.952;4.678;2023-04-15T08:52:36;10.48;;;5.13;;
24034;SDS011;12242;50.952;4.678;2023-04-15T08:55:04;10.40;;;4.35;;
24034;SDS011;12242;50.952;4.678;2023-04-15T08:57:33;14.52;;;5.05;;
24034;SDS011;12242;50.952;4.678;2023-04-15T09:00:03;10.02;;;4.80;;
24034;SDS011;12242;50.952;4.678;2023-04-15T09:02:32;10.50;;;4.57;;
24034;SDS011;12242;50.952;4.678;2023-04-15T09:05:00;9.50;;;4.63;;
24034;SDS011;12242;50.952;4.678;2023-04-15T09:07:32;9.65;;;4.38;;
24034;SDS011;12242;50.952;4.678;2023-04-15T09:10:02;10.10;;;4.28;;
24034;SDS011;12242;50.952;4.678;2023-04-15T09:12:32;12.00;;;4.53;;
24034;SDS011;12242;50.952;4.678;2023-04-15T09:15:03;14.48;;;4.32;;
24034;SDS011;12242;50.952;4.678;2023-04-15T09:17:31;8.35;;;4.00;;
24034;SDS011;12242;50.952;4.678;2023-04-15T09:20:06;9.73;;;4.30;;
24034;SDS011;12242;50.952;4.678;2023-04-15T09:22:35;6.22;;;3.30;;
24034;SDS011;12242;50.952;4.678;2023-04-15T09:25:07;6.63;;;3.17;;
24034;SDS011;12242;50.952;4.678;2023-04-15T09:27:54;6.60;;;3.30;;
24034;SDS011;12242;50.952;4.678;2023-04-15T09:30:23;6.20;;;3.40;;
24034;SDS011;12242;50.952;4.678;2023-04-15T09:32:51;7.57;;;3.40;;
24034;SDS011;12242;50.952;4.678;2023-04-15T09:35:20;7.45;;;2.95;;
24034;SDS011;12242;50.952;4.678;2023-04-15T09:37:49;5.75;;;2.58;;
24034;SDS011;12242;50.952;4.678;2023-04-15T09:40:38;6.68;;;2.83;;
24034;SDS011;12242;50.952;4.678;2023-04-15T09:43:07;7.40;;;2.85;;
24034;SDS011;12242;50.952;4.678;2023-04-15T09:45:35;6.03;;;2.50;;
24034;SDS011;12242;50.952;4.678;2023-04-15T09:48:22;4.68;;;2.38;;
24034;SDS011;12242;50.952;4.678;2023-04-15T09:50:53;8.65;;;2.30;;
24034;SDS011;12242;50.952;4.678;2023-04-15T09:53:24;6.72;;;2.20;;
24034;SDS011;12242;50.952;4.678;2023-04-15T09:55:52;5.30;;;1.92;;
24034;SDS011;12242;50.952;4.678;2023-04-15T09:58:30;3.95;;;2.10;;
24034;SDS011;12242;50.952;4.678;2023-04-15T10:00:59;5.55;;;2.10;;
24034;SDS011;12242;50.952;4.678;2023-04-15T10:03:30;4.75;;;2.15;;
24034;SDS011;12242;50.952;4.678;2023-04-15T10:06:00;7.30;;;2.47;;
24034;SDS011;12242;50.952;4.678;2023-04-15T10:08:29;4.80;;;1.95;;
24034;SDS011;12242;50.952;4.678;2023-04-15T10:11:02;4.65;;;2.05;;
24034;SDS011;12242;50.952;4.678;2023-04-15T10:13:31;4.40;;;2.00;;
24034;SDS011;12242;50.952;4.678;2023-04-15T10:16:10;3.97;;;2.08;;
24034;SDS011;12242;50.952;4.678;2023-04-15T10:18:41;5.30;;;1.90;;
24034;SDS011;12242;50.952;4.678;2023-04-15T10:21:13;4.88;;;2.00;;
24034;SDS011;12242;50.952;4.678;2023-04-15T10:23:44;5.60;;;2.30;;
24034;SDS011;12242;50.952;4.678;2023-04-15T10:26:13;7.13;;;2.60;;
24034;SDS011;12242;50.952;4.678;2023-04-15T10:28:43;6.32;;;2.17;;
24034;SDS011;12242;50.952;4.678;2023-04-15T10:31:13;10.75;;;3.22;;
24034;SDS011;12242;50.952;4.678;2023-04-15T10:33:41;19.05;;;3.50;;
24034;SDS011;12242;50.952;4.678;2023-04-15T10:36:10;6.82;;;2.35;;
24034;SDS011;12242;50.952;4.678;2023-04-15T10:38:42;6.55;;;2.50;;
24034;SDS011;12242;50.952;4.678;2023-04-15T10:43:49;7.32;;;2.97;;
24034;SDS011;12242;50.952;4.678;2023-04-15T10:46:22;6.28;;;2.63;;
24034;SDS011;12242;50.952;4.678;2023-04-15T10:48:52;6.03;;;2.20;;
24034;SDS011;12242;50.952;4.678;2023-04-15T10:51:27;6.82;;;2.55;;
24034;SDS011;12242;50.952;4.678;2023-04-15T10:53:58;5.60;;;1.88;;
24034;SDS011;12242;50.952;4.678;2023-04-15T10:56:27;5.63;;;1.67;;
24034;SDS011;12242;50.952;4.678;2023-04-15T10:58:57;3.85;;;1.70;;
24034;SDS011;12242;50.952;4.678;2023-04-15T11:01:48;5.38;;;2.20;;
24034;SDS011;12242;50.952;4.678;2023-04-15T11:07:36;5.78;;;2.10;;
24034;SDS011;12242;50.952;4.678;2023-04-15T11:12:44;5.68;;;2.45;;
24034;SDS011;12242;50.952;4.678;2023-04-15T11:15:26;5.68;;;2.45;;
24034;SDS011;12242;50.952;4.678;2023-04-15T11:17:58;6.28;;;2.50;;
24034;SDS011;12242;50.952;4.678;2023-04-15T11:20:26;5.85;;;2.25;;
24034;SDS011;12242;50.952;4.678;2023-04-15T11:22:54;6.70;;;2.67;;
24034;SDS011;12242;50.952;4.678;2023-04-15T11:25:41;5.60;;;1.95;;
24034;SDS011;12242;50.952;4.678;2023-04-15T11:28:10;7.78;;;2.60;;
24034;SDS011;12242;50.952;4.678;2023-04-15T11:30:38;5.68;;;2.30;;
24034;SDS011;12242;50.952;4.678;2023-04-15T11:33:08;5.80;;;1.52;;
24034;SDS011;12242;50.952;4.678;2023-04-15T11:35:39;5.10;;;2.03;;
24034;SDS011;12242;50.952;4.678;2023-04-15T11:38:08;4.53;;;1.38;;
24034;SDS011;12242;50.952;4.678;2023-04-15T11:40:41;3.80;;;1.20;;
24034;SDS011;12242;50.952;4.678;2023-04-15T11:43:13;5.15;;;1.38;;
24034;SDS011;12242;50.952;4.678;2023-04-15T11:48:23;4.30;;;1.52;;
24034;SDS011;12242;50.952;4.678;2023-04-15T11:51:02;2.85;;;1.30;;
24034;SDS011;12242;50.952;4.678;2023-04-15T11:56:07;4.25;;;1.20;;
24034;SDS011;12242;50.952;4.678;2023-04-15T11:58:37;3.30;;;1.30;;
24034;SDS011;12242;50.952;4.678;2023-04-15T12:01:05;4.55;;;1.30;;
24034;SDS011;12242;50.952;4.678;2023-04-15T12:12:06;4.55;;;1.58;;
24034;SDS011;12242;50.952;4.678;2023-04-15T12:14:26;2.65;;;0.73;;
24034;SDS011;12242;50.952;4.678;2023-04-15T12:17:02;2.83;;;0.90;;
24034;SDS011;12242;50.952;4.678;2023-04-15T12:19:36;2.60;;;0.70;;
24034;SDS011;12242;50.952;4.678;2023-04-15T12:22:12;2.33;;;0.82;;
24034;SDS011;12242;50.952;4.678;2023-04-15T12:24:42;1.70;;;0.75;;
24034;SDS011;12242;50.952;4.678;2023-04-15T12:27:14;2.38;;;0.80;;
24034;SDS011;12242;50.952;4.678;2023-04-15T12:29:42;2.88;;;0.55;;
24034;SDS011;12242;50.952;4.678;2023-04-15T12:32:14;2.17;;;0.88;;
24034;SDS011;12242;50.952;4.678;2023-04-15T12:34:43;2.58;;;0.57;;
24034;SDS011;12242;50.952;4.678;2023-04-15T12:37:19;1.90;;;0.90;;
24034;SDS011;12242;50.952;4.678;2023-04-15T12:39:47;3.63;;;0.90;;
24034;SDS011;12242;50.952;4.678;2023-04-15T12:42:15;2.13;;;0.70;;
24034;SDS011;12242;50.952;4.678;2023-04-15T12:44:44;2.20;;;1.00;;
24034;SDS011;12242;50.952;4.678;2023-04-15T12:47:13;3.75;;;0.93;;
24034;SDS011;12242;50.952;4.678;2023-04-15T12:49:40;2.13;;;0.93;;
24034;SDS011;12242;50.952;4.678;2023-04-15T12:52:08;4.47;;;1.35;;
24034;SDS011;12242;50.952;4.678;2023-04-15T12:54:35;3.65;;;1.20;;
24034;SDS011;12242;50.952;4.678;2023-04-15T12:57:03;2.10;;;0.77;;
24034;SDS011;12242;50.952;4.678;2023-04-15T12:59:33;4.00;;;1.30;;
24034;SDS011;12242;50.952;4.678;2023-04-15T13:02:02;3.83;;;1.02;;
24034;SDS011;12242;50.952;4.678;2023-04-15T13:04:30;2.25;;;0.93;;
24034;SDS011;12242;50.952;4.678;2023-04-15T13:06:58;3.00;;;0.90;;
24034;SDS011;12242;50.952;4.678;2023-04-15T13:09:27;3.35;;;0.70;;
24034;SDS011;12242;50.952;4.678;2023-04-15T13:11:54;3.65;;;1.02;;
24034;SDS011;12242;50.952;4.678;2023-04-15T13:14:23;1.63;;;0.70;;
24034;SDS011;12242;50.952;4.678;2023-04-15T13:16:50;4.88;;;0.82;;
24034;SDS011;12242;50.952;4.678;2023-04-15T13:19:19;3.38;;;1.00;;
24034;SDS011;12242;50.952;4.678;2023-04-15T13:21:47;3.88;;;1.15;;
24034;SDS011;12242;50.952;4.678;2023-04-15T13:24:14;4.93;;;1.15;;
24034;SDS011;12242;50.952;4.678;2023-04-15T13:26:42;1.77;;;1.00;;
24034;SDS011;12242;50.952;4.678;2023-04-15T13:29:09;3.75;;;0.88;;
24034;SDS011;12242;50.952;4.678;2023-04-15T13:31:38;5.07;;;1.20;;
24034;SDS011;12242;50.952;4.678;2023-04-15T13:34:05;2.83;;;1.30;;
24034;SDS011;12242;50.952;4.678;2023-04-15T13:36:33;4.07;;;1.70;;
24034;SDS011;12242;50.952;4.678;2023-04-15T13:39:01;2.58;;;1.17;;
24034;SDS011;12242;50.952;4.678;2023-04-15T13:41:29;3.53;;;1.40;;
24034;SDS011;12242;50.952;4.678;2023-04-15T13:43:57;3.70;;;1.55;;
24034;SDS011;12242;50.952;4.678;2023-04-15T13:46:24;4.00;;;1.50;;
24034;SDS011;12242;50.952;4.678;2023-04-15T13:48:52;3.75;;;1.52;;
24034;SDS011;12242;50.952;4.678;2023-04-15T13:51:19;7.90;;;1.20;;
24034;SDS011;12242;50.952;4.678;2023-04-15T13:53:47;2.83;;;1.10;;
24034;SDS011;12242;50.952;4.678;2023-04-15T13:56:15;2.72;;;1.05;;
24034;SDS011;12242;50.952;4.678;2023-04-15T13:58:42;7.53;;;1.50;;
24034;SDS011;12242;50.952;4.678;2023-04-15T14:01:10;2.28;;;1.00;;
24034;SDS011;12242;50.952;4.678;2023-04-15T14:03:38;2.55;;;0.80;;
24034;SDS011;12242;50.952;4.678;2023-04-15T14:06:05;3.05;;;0.98;;
24034;SDS011;12242;50.952;4.678;2023-04-15T14:08:33;5.70;;;0.90;;
24034;SDS011;12242;50.952;4.678;2023-04-15T14:11:01;2.85;;;0.75;;
24034;SDS011;12242;50.952;4.678;2023-04-15T14:13:28;1.70;;;0.80;;
24034;SDS011;12242;50.952;4.678;2023-04-15T14:15:57;1.60;;;0.70;;
24034;SDS011;12242;50.952;4.678;2023-04-15T14:18:25;3.15;;;0.70;;
24034;SDS011;12242;50.952;4.678;2023-04-15T14:20:52;1.25;;;0.60;;
24034;SDS011;12242;50.952;4.678;2023-04-15T14:23:21;1.20;;;0.50;;
24034;SDS011;12242;50.952;4.678;2023-04-15T14:25:49;2.42;;;0.80;;
24034;SDS011;12242;50.952;4.678;2023-04-15T14:28:17;2.45;;;1.05;;
24034;SDS011;12242;50.952;4.678;2023-04-15T14:30:45;2.83;;;0.68;;
24034;SDS011;12242;50.952;4.678;2023-04-15T14:33:13;2.15;;;0.73;;
24034;SDS011;12242;50.952;4.678;2023-04-15T14:35:40;2.33;;;0.80;;
24034;SDS011;12242;50.952;4.678;2023-04-15T14:38:08;2.08;;;0.95;;
24034;SDS011;12242;50.952;4.678;2023-04-15T14:40:37;4.25;;;0.75;;
24034;SDS011;12242;50.952;4.678;2023-04-15T14:43:04;5.78;;;0.75;;
24034;SDS011;12242;50.952;4.678;2023-04-15T14:45:32;4.45;;;0.82;;
24034;SDS011;12242;50.952;4.678;2023-04-15T14:48:01;4.18;;;0.73;;
24034;SDS011;12242;50.952;4.678;2023-04-15T14:50:28;2.95;;;0.90;;
24034;SDS011;12242;50.952;4.678;2023-04-15T14:52:57;2.08;;;0.90;;
24034;SDS011;12242;50.952;4.678;2023-04-15T14:55:24;5.03;;;1.00;;
24034;SDS011;12242;50.952;4.678;2023-04-15T14:57:52;1.80;;;0.80;;
24034;SDS011;12242;50.952;4.678;2023-04-15T15:00:20;3.55;;;1.13;;
24034;SDS011;12242;50.952;4.678;2023-04-15T15:02:47;1.13;;;0.50;;
24034;SDS011;12242;50.952;4.678;2023-04-15T15:05:15;1.65;;;0.57;;
24034;SDS011;12242;50.952;4.678;2023-04-15T15:07:42;1.75;;;0.73;;
24034;SDS011;12242;50.952;4.678;2023-04-15T15:10:10;3.05;;;0.98;;
24034;SDS011;12242;50.952;4.678;2023-04-15T15:12:37;3.30;;;0.93;;
24034;SDS011;12242;50.952;4.678;2023-04-15T15:15:05;1.98;;;0.90;;
24034;SDS011;12242;50.952;4.678;2023-04-15T15:17:53;2.67;;;1.05;;